createdAt,value
2018-03-31T00:01:20.210Z,6.53
2018-03-31T00:03:47.859Z,7.15
2018-03-31T00:06:15.484Z,7.60
2018-03-31T00:08:43.136Z,9.63
2018-03-31T00:11:11.524Z,8.00
2018-03-31T00:13:39.151Z,8.60
2018-03-31T00:16:06.772Z,8.98
2018-03-31T00:18:34.396Z,9.38
2018-03-31T00:21:02.772Z,9.88
2018-03-31T00:23:31.165Z,10.48
2018-03-31T00:25:58.827Z,9.90
2018-03-31T00:28:26.446Z,10.30
2018-03-31T00:30:54.070Z,9.73
2018-03-31T00:33:21.696Z,10.38
2018-03-31T00:35:50.085Z,9.43
2018-03-31T00:38:17.696Z,10.65
2018-03-31T00:40:45.305Z,10.68
2018-03-31T00:43:12.948Z,10.02
2018-03-31T00:45:41.351Z,10.93
2018-03-31T00:48:09.003Z,10.35
2018-03-31T00:50:37.397Z,11.35
2018-03-31T00:53:05.039Z,10.88
2018-03-31T00:55:33.426Z,11.57
2018-03-31T00:58:01.055Z,11.50
2018-03-31T01:00:28.665Z,11.70
2018-03-31T01:02:56.295Z,12.90
2018-03-31T01:05:24.698Z,12.55
2018-03-31T01:07:52.431Z,13.65
2018-03-31T01:10:20.811Z,13.10
2018-03-31T01:12:49.207Z,12.82
2018-03-31T01:15:16.852Z,13.32
2018-03-31T01:17:45.239Z,13.77
2018-03-31T01:20:13.719Z,14.55
2018-03-31T01:22:42.115Z,13.57
2018-03-31T01:25:09.748Z,12.98
2018-03-31T01:27:38.135Z,13.88
2018-03-31T01:30:06.527Z,14.63
2018-03-31T01:32:34.163Z,13.38
2018-03-31T01:35:02.555Z,15.80
2018-03-31T01:37:30.211Z,15.43
2018-03-31T01:39:58.616Z,14.50
2018-03-31T01:42:26.230Z,14.15
2018-03-31T01:44:54.697Z,15.25
2018-03-31T01:47:22.336Z,15.52
2018-03-31T01:49:49.941Z,15.02
2018-03-31T01:52:18.319Z,14.60
2018-03-31T01:54:46.711Z,13.43
2018-03-31T01:57:15.109Z,13.95
2018-03-31T01:59:42.732Z,13.77
2018-03-31T02:02:11.121Z,14.45
2018-03-31T02:04:39.509Z,14.25
2018-03-31T02:07:07.991Z,14.15
2018-03-31T02:09:35.647Z,13.93
2018-03-31T02:12:04.046Z,13.62
2018-03-31T02:14:31.662Z,13.52
2018-03-31T02:16:59.319Z,14.82
2018-03-31T02:19:27.021Z,13.40
2018-03-31T02:21:54.635Z,15.60
2018-03-31T02:24:22.257Z,13.55
2018-03-31T02:26:49.884Z,14.25
2018-03-31T02:29:18.272Z,13.40
2018-03-31T02:31:46.651Z,14.27
2018-03-31T02:34:15.061Z,13.93
2018-03-31T02:36:42.697Z,13.80
2018-03-31T02:39:10.306Z,13.45
2018-03-31T02:41:38.687Z,14.07
2018-03-31T02:44:06.327Z,14.30
2018-03-31T02:46:33.982Z,14.07
2018-03-31T02:49:01.601Z,14.30
2018-03-31T02:51:29.993Z,14.57
2018-03-31T02:53:57.618Z,15.73
2018-03-31T02:56:25.256Z,13.27
2018-03-31T02:58:52.871Z,14.02
2018-03-31T03:01:21.270Z,14.00
2018-03-31T03:03:48.936Z,13.40
2018-03-31T03:06:16.563Z,13.57
2018-03-31T03:08:44.959Z,14.73
2018-03-31T03:11:12.584Z,14.43
2018-03-31T03:13:40.216Z,14.13
2018-03-31T03:16:07.856Z,15.85
2018-03-31T03:18:35.496Z,14.85
2018-03-31T03:21:03.118Z,14.90
2018-03-31T03:23:30.833Z,15.23
2018-03-31T03:25:58.397Z,14.23
2018-03-31T03:28:26.035Z,14.25
2018-03-31T03:30:54.421Z,13.40
2018-03-31T03:33:22.069Z,13.93
2018-03-31T03:35:50.462Z,13.93
2018-03-31T03:38:18.120Z,14.82
2018-03-31T03:40:46.506Z,13.27
2018-03-31T03:43:14.124Z,12.90
2018-03-31T03:45:42.528Z,12.93
2018-03-31T03:48:10.926Z,12.95
2018-03-31T03:50:38.534Z,13.10
2018-03-31T03:53:06.178Z,12.43
2018-03-31T03:55:33.786Z,13.20
2018-03-31T03:58:02.305Z,13.62
2018-03-31T04:00:29.916Z,13.25
2018-03-31T04:02:58.326Z,14.38
2018-03-31T04:05:26.855Z,12.85
2018-03-31T04:07:54.532Z,12.37
2018-03-31T04:10:22.148Z,14.32
2018-03-31T04:12:49.762Z,12.77
2018-03-31T04:15:18.150Z,12.90
2018-03-31T04:17:46.577Z,14.10
2018-03-31T04:20:14.190Z,13.68
2018-03-31T04:22:42.576Z,13.82
2018-03-31T04:25:10.216Z,14.25
2018-03-31T04:27:38.720Z,14.30
2018-03-31T04:30:06.343Z,14.13
2018-03-31T04:32:33.952Z,14.15
2018-03-31T04:35:01.585Z,14.07
2018-03-31T04:37:29.983Z,15.48
2018-03-31T04:39:57.614Z,12.77
2018-03-31T04:42:25.237Z,12.57
2018-03-31T04:44:52.850Z,13.40
2018-03-31T04:47:21.248Z,14.32
2018-03-31T04:49:48.864Z,14.32
2018-03-31T04:52:16.495Z,14.25
2018-03-31T04:54:44.216Z,13.55
2018-03-31T04:57:12.626Z,14.00
2018-03-31T04:59:40.256Z,13.80
2018-03-31T05:02:08.641Z,13.82
2018-03-31T05:04:36.278Z,16.15
2018-03-31T05:07:03.917Z,16.12
2018-03-31T05:09:31.543Z,15.02
2018-03-31T05:11:59.231Z,14.30
2018-03-31T05:14:26.799Z,14.63
2018-03-31T05:16:54.425Z,15.38
2018-03-31T05:19:22.055Z,14.77
2018-03-31T05:21:50.547Z,15.85
2018-03-31T05:24:18.215Z,14.93
2018-03-31T05:26:45.871Z,15.43
2018-03-31T05:29:13.499Z,13.75
2018-03-31T05:31:41.114Z,15.02
2018-03-31T05:34:08.739Z,13.88
2018-03-31T05:36:37.139Z,12.95
2018-03-31T05:39:04.796Z,12.95
2018-03-31T05:41:32.415Z,14.85
2018-03-31T05:44:00.067Z,15.73
2018-03-31T05:46:27.827Z,14.30
2018-03-31T05:48:55.553Z,14.13
2018-03-31T05:51:23.217Z,13.20
2018-03-31T05:53:50.831Z,13.32
2018-03-31T05:56:18.487Z,12.85
2018-03-31T05:58:46.115Z,14.52
2018-03-31T06:01:13.734Z,15.13
2018-03-31T06:03:42.121Z,19.70
2018-03-31T06:06:09.771Z,16.00
2018-03-31T06:08:38.206Z,13.00
2018-03-31T06:11:05.823Z,13.73
2018-03-31T06:13:33.437Z,14.05
2018-03-31T06:16:01.070Z,13.18
2018-03-31T06:18:28.691Z,11.70
2018-03-31T06:20:57.070Z,11.82
2018-03-31T06:23:25.458Z,11.30
2018-03-31T06:25:53.159Z,11.12
2018-03-31T06:28:20.793Z,11.02
2018-03-31T06:30:48.400Z,11.60
2018-03-31T06:33:16.006Z,9.82
2018-03-31T06:35:43.674Z,9.82
2018-03-31T06:38:12.188Z,9.40
2018-03-31T06:40:39.815Z,9.38
2018-03-31T06:43:07.428Z,8.90
2018-03-31T06:45:35.040Z,9.20
2018-03-31T06:48:02.658Z,7.30
2018-03-31T06:50:31.790Z,7.80
2018-03-31T06:52:59.415Z,9.50
2018-03-31T06:55:27.818Z,8.13
2018-03-31T06:57:56.195Z,9.70
2018-03-31T07:00:24.592Z,8.80
2018-03-31T07:02:52.198Z,8.00
2018-03-31T07:05:19.806Z,6.15
2018-03-31T07:07:47.458Z,7.50
2018-03-31T07:10:15.869Z,5.75
2018-03-31T07:12:43.457Z,6.62
2018-03-31T07:15:11.189Z,7.30
2018-03-31T07:17:38.791Z,7.87
2018-03-31T07:20:06.430Z,6.78
2018-03-31T07:22:34.069Z,5.85
2018-03-31T07:25:01.708Z,6.30
2018-03-31T07:27:30.076Z,6.35
2018-03-31T07:29:58.469Z,9.27
2018-03-31T07:32:26.096Z,6.90
2018-03-31T07:34:55.218Z,9.10
2018-03-31T07:37:23.600Z,7.12
2018-03-31T07:39:51.246Z,9.43
2018-03-31T07:42:19.630Z,6.60
2018-03-31T07:44:48.004Z,7.43
2018-03-31T07:47:16.391Z,7.72
2018-03-31T07:49:44.034Z,6.55
2018-03-31T07:52:11.718Z,6.10
2018-03-31T07:54:40.108Z,6.30
2018-03-31T07:57:07.767Z,6.55
2018-03-31T07:59:35.419Z,5.85
2018-03-31T08:02:03.788Z,5.80
2018-03-31T08:04:32.160Z,6.15
2018-03-31T08:07:00.391Z,5.82
2018-03-31T08:09:28.022Z,6.18
2018-03-31T08:11:55.636Z,6.82
2018-03-31T08:14:24.890Z,7.18
2018-03-31T08:16:52.491Z,6.37
2018-03-31T08:19:20.147Z,5.53
2018-03-31T08:21:47.855Z,5.03
2018-03-31T08:24:15.471Z,5.50
2018-03-31T08:26:43.136Z,6.45
2018-03-31T08:29:10.754Z,5.47
2018-03-31T08:31:38.391Z,4.43
2018-03-31T08:34:06.007Z,4.93
2018-03-31T08:36:33.647Z,5.32
2018-03-31T08:39:01.275Z,6.28
2018-03-31T08:41:28.935Z,5.37
2018-03-31T08:43:56.560Z,5.15
2018-03-31T08:46:24.257Z,4.72
2018-03-31T08:48:51.891Z,6.80
2018-03-31T08:51:20.315Z,5.15
2018-03-31T08:53:47.935Z,3.78
2018-03-31T08:56:15.555Z,5.32
2018-03-31T08:58:43.203Z,3.83
2018-03-31T09:01:10.876Z,7.00
2018-03-31T09:03:38.478Z,4.78
2018-03-31T09:06:06.138Z,3.85
2018-03-31T09:08:33.767Z,5.05
2018-03-31T09:11:01.405Z,5.97
2018-03-31T09:13:29.167Z,4.85
2018-03-31T09:15:56.795Z,6.12
2018-03-31T09:18:25.194Z,5.30
2018-03-31T09:20:52.839Z,4.80
2018-03-31T09:23:21.228Z,4.07
2018-03-31T09:25:48.855Z,4.22
2018-03-31T09:28:16.498Z,4.55
2018-03-31T09:30:45.654Z,4.47
2018-03-31T09:33:13.305Z,6.40
2018-03-31T09:35:41.715Z,3.85
2018-03-31T09:38:09.343Z,5.80
2018-03-31T09:40:37.793Z,3.22
2018-03-31T09:43:06.928Z,4.87
2018-03-31T09:45:34.550Z,4.47
2018-03-31T09:48:02.954Z,3.33
2018-03-31T09:50:30.594Z,5.85
2018-03-31T09:52:59.022Z,3.53
2018-03-31T09:55:26.764Z,3.95
2018-03-31T09:57:54.439Z,4.45
2018-03-31T10:00:27.806Z,3.75
2018-03-31T10:02:55.433Z,4.50
2018-03-31T10:05:23.051Z,4.78
2018-03-31T10:07:50.673Z,4.83
2018-03-31T10:10:18.374Z,6.20
2018-03-31T10:12:46.026Z,3.87
2018-03-31T10:15:14.504Z,2.33
2018-03-31T10:17:42.883Z,2.60
2018-03-31T10:20:11.382Z,4.63
2018-03-31T10:22:39.123Z,4.93
2018-03-31T10:25:06.723Z,4.37
2018-03-31T10:27:34.353Z,3.95
2018-03-31T10:30:02.753Z,3.17
2018-03-31T10:32:30.386Z,4.40
2018-03-31T10:34:58.770Z,3.03
2018-03-31T10:37:27.184Z,3.43
2018-03-31T10:39:54.822Z,3.80
2018-03-31T10:42:22.482Z,4.83
2018-03-31T10:44:50.146Z,4.03
2018-03-31T10:47:17.795Z,4.03
2018-03-31T10:49:46.292Z,4.60
2018-03-31T10:52:13.939Z,3.20
2018-03-31T10:54:42.320Z,3.50
2018-03-31T10:57:10.736Z,3.37
2018-03-31T10:59:38.368Z,5.20
2018-03-31T11:02:06.028Z,3.33
2018-03-31T11:04:33.648Z,6.53
2018-03-31T11:07:01.257Z,6.53
2018-03-31T11:09:28.907Z,5.30
2018-03-31T11:11:56.551Z,5.07
2018-03-31T11:14:24.937Z,2.77
2018-03-31T11:16:53.335Z,3.13
2018-03-31T11:19:20.964Z,5.60
2018-03-31T11:21:48.657Z,5.43
2018-03-31T11:24:16.282Z,6.90
2018-03-31T11:26:43.909Z,6.23
2018-03-31T11:29:11.623Z,5.47
2018-03-31T11:31:40.048Z,5.57
2018-03-31T11:34:07.788Z,6.53
2018-03-31T11:36:35.396Z,5.67
2018-03-31T11:39:03.035Z,3.93
2018-03-31T11:41:30.667Z,7.73
2018-03-31T11:43:59.153Z,6.10
2018-03-31T11:46:26.771Z,4.80
2018-03-31T11:48:54.442Z,5.27
2018-03-31T11:51:22.031Z,5.47
2018-03-31T11:53:49.681Z,5.00
2018-03-31T11:56:17.300Z,5.23
2018-03-31T11:58:45.003Z,6.13
2018-03-31T12:01:12.670Z,3.13
2018-03-31T12:03:41.147Z,8.23
2018-03-31T12:06:08.759Z,9.17
2018-03-31T12:08:36.383Z,6.03
2018-03-31T12:11:04.038Z,4.53
2018-03-31T12:13:32.507Z,7.23
2018-03-31T12:16:00.136Z,8.07
2018-03-31T12:18:27.961Z,5.17
2018-03-31T12:20:55.567Z,5.53
2018-03-31T12:23:23.256Z,6.93
2018-03-31T12:25:51.699Z,6.47
2018-03-31T12:28:19.363Z,6.77
2018-03-31T12:30:46.985Z,3.47
2018-03-31T12:33:14.621Z,5.50
2018-03-31T12:35:43.021Z,6.03
2018-03-31T12:38:10.635Z,7.33
2018-03-31T12:40:38.272Z,3.80
2018-03-31T12:43:05.980Z,7.67
2018-03-31T12:45:34.355Z,5.33
2018-03-31T12:48:02.751Z,7.43
2018-03-31T12:50:31.249Z,4.97
2018-03-31T12:52:58.982Z,5.03
2018-03-31T12:55:27.375Z,3.87
2018-03-31T12:57:54.994Z,3.47
2018-03-31T13:00:22.617Z,5.10
2018-03-31T13:02:50.259Z,3.50
2018-03-31T13:05:17.885Z,3.73
2018-03-31T13:07:45.497Z,4.17
2018-03-31T13:10:13.142Z,4.83
2018-03-31T13:12:40.766Z,5.00
2018-03-31T13:15:09.166Z,3.37
2018-03-31T13:17:37.549Z,4.63
2018-03-31T13:20:05.167Z,5.53
2018-03-31T13:22:34.317Z,4.03
2018-03-31T13:25:01.970Z,3.33
2018-03-31T13:27:29.583Z,3.93
2018-03-31T13:29:57.203Z,5.50
2018-03-31T13:32:24.903Z,4.23
2018-03-31T13:34:52.541Z,6.53
2018-03-31T13:37:20.189Z,3.57
2018-03-31T13:39:47.808Z,3.90
2018-03-31T13:42:15.454Z,2.00
2018-03-31T13:44:44.615Z,2.97
2018-03-31T13:47:12.227Z,3.53
2018-03-31T13:49:39.916Z,5.33
2018-03-31T13:52:07.579Z,2.33
2018-03-31T13:54:35.212Z,5.60
2018-03-31T13:57:02.854Z,5.03
2018-03-31T13:59:30.499Z,2.90
2018-03-31T14:01:58.150Z,4.03
2018-03-31T14:04:25.780Z,2.17
2018-03-31T14:06:54.262Z,4.53
2018-03-31T14:09:21.892Z,3.07
2018-03-31T14:11:49.526Z,2.13
2018-03-31T14:14:17.150Z,4.40
2018-03-31T14:16:44.774Z,2.63
2018-03-31T14:19:12.404Z,5.60
2018-03-31T14:21:40.028Z,4.50
2018-03-31T14:24:08.454Z,4.43
2018-03-31T14:26:36.172Z,4.33
2018-03-31T14:29:04.658Z,7.03
2018-03-31T14:31:32.279Z,3.40
2018-03-31T14:33:59.910Z,2.50
2018-03-31T14:36:27.528Z,3.37
2018-03-31T14:38:56.040Z,2.60
2018-03-31T14:41:23.702Z,2.20
2018-03-31T14:43:51.330Z,4.20
2018-03-31T14:46:19.804Z,2.83
2018-03-31T14:48:48.183Z,4.27
2018-03-31T14:51:16.596Z,2.80
2018-03-31T14:53:44.305Z,3.47
2018-03-31T14:56:11.986Z,2.50
2018-03-31T14:58:40.364Z,2.13
2018-03-31T15:01:08.784Z,4.37
2018-03-31T15:03:36.396Z,2.73
2018-03-31T15:06:04.095Z,3.10
2018-03-31T15:08:31.720Z,2.47
2018-03-31T15:10:59.537Z,3.33
2018-03-31T15:13:27.125Z,3.53
2018-03-31T15:15:54.928Z,2.50
2018-03-31T15:18:23.317Z,3.63
2018-03-31T15:20:51.708Z,3.77
2018-03-31T15:23:19.539Z,4.10
2018-03-31T15:25:48.136Z,5.50
2018-03-31T15:28:16.616Z,3.47
2018-03-31T15:30:46.635Z,3.77
2018-03-31T15:33:15.071Z,2.10
2018-03-31T15:35:42.884Z,2.00
2018-03-31T15:38:11.261Z,2.73
2018-03-31T15:40:39.793Z,2.93
2018-03-31T15:43:08.150Z,3.60
2018-03-31T15:45:35.784Z,2.10
2018-03-31T15:48:04.167Z,2.23
2018-03-31T15:50:31.803Z,2.90
2018-03-31T15:53:00.336Z,2.58
2018-03-31T15:55:28.055Z,4.72
2018-03-31T15:57:56.447Z,3.67
2018-03-31T16:00:24.068Z,3.30
2018-03-31T16:02:51.718Z,3.03
2018-03-31T16:05:19.411Z,2.37
2018-03-31T16:07:47.823Z,3.17
2018-03-31T16:10:15.431Z,2.37
2018-03-31T16:12:43.059Z,2.03
2018-03-31T16:15:10.720Z,2.22
2018-03-31T16:17:38.334Z,1.58
2018-03-31T16:20:06.731Z,1.87
2018-03-31T16:22:35.189Z,2.53
2018-03-31T16:25:02.993Z,2.20
2018-03-31T16:27:31.351Z,3.78
2018-03-31T16:29:59.017Z,2.17
2018-03-31T16:32:26.671Z,3.70
2018-03-31T16:34:54.347Z,3.65
2018-03-31T16:37:21.994Z,3.12
2018-03-31T16:39:50.375Z,3.35
2018-03-31T16:42:18.758Z,7.18
2018-03-31T16:44:46.394Z,3.87
2018-03-31T16:47:14.794Z,3.97
2018-03-31T16:49:42.485Z,3.72
2018-03-31T16:52:10.112Z,3.65
2018-03-31T16:54:38.510Z,4.30
2018-03-31T16:57:06.143Z,4.25
2018-03-31T16:59:34.530Z,4.57
2018-03-31T17:02:02.921Z,3.10
2018-03-31T17:04:30.681Z,4.82
2018-03-31T17:06:58.338Z,13.48
2018-03-31T17:09:25.971Z,4.22
2018-03-31T17:11:53.598Z,3.05
2018-03-31T17:14:21.323Z,2.95
2018-03-31T17:16:49.040Z,5.22
2018-03-31T17:19:16.620Z,3.12
2018-03-31T17:21:45.880Z,3.00
2018-03-31T17:24:13.506Z,2.75
2018-03-31T17:26:41.166Z,3.05
2018-03-31T17:29:08.786Z,4.25
2018-03-31T17:31:36.410Z,3.55
2018-03-31T17:34:04.058Z,2.62
2018-03-31T17:36:31.688Z,3.40
2018-03-31T17:38:59.307Z,3.15
2018-03-31T17:41:26.953Z,3.47
2018-03-31T17:43:54.570Z,4.07
2018-03-31T17:46:22.242Z,3.95
2018-03-31T17:48:50.624Z,3.30
2018-03-31T17:51:19.024Z,3.65
2018-03-31T17:53:46.664Z,6.30
2018-03-31T17:56:15.059Z,3.45
2018-03-31T17:58:42.697Z,4.55
2018-03-31T18:01:10.335Z,4.18
2018-03-31T18:03:38.024Z,4.07
2018-03-31T18:06:06.405Z,3.72
2018-03-31T18:08:34.784Z,3.90
2018-03-31T18:11:03.280Z,4.55
2018-03-31T18:13:30.900Z,3.60
2018-03-31T18:15:58.524Z,4.78
2018-03-31T18:18:26.152Z,3.53
2018-03-31T18:20:54.548Z,3.85
2018-03-31T18:23:22.231Z,3.70
2018-03-31T18:25:49.863Z,5.30
2018-03-31T18:28:18.252Z,4.80
2018-03-31T18:30:45.875Z,5.20
2018-03-31T18:33:15.003Z,4.35
2018-03-31T18:35:42.659Z,6.28
2018-03-31T18:38:10.295Z,4.12
2018-03-31T18:40:38.679Z,4.62
2018-03-31T18:43:07.075Z,4.25
2018-03-31T18:45:35.499Z,3.87
2018-03-31T18:48:03.138Z,3.95
2018-03-31T18:50:30.760Z,3.92
2018-03-31T18:52:58.375Z,5.53
2018-03-31T18:55:25.995Z,4.82
2018-03-31T18:57:54.394Z,4.60
2018-03-31T19:00:22.015Z,3.30
2018-03-31T19:02:50.414Z,3.30
2018-03-31T19:05:18.815Z,3.33
2018-03-31T19:07:46.443Z,3.40
2018-03-31T19:10:14.831Z,3.72
2018-03-31T19:12:43.215Z,4.40
2018-03-31T19:15:10.853Z,4.53
2018-03-31T19:17:39.292Z,4.43
2018-03-31T19:20:06.911Z,3.85
2018-03-31T19:22:35.292Z,3.70
2018-03-31T19:25:09.333Z,4.20
2018-03-31T19:27:37.075Z,3.67
2018-03-31T19:30:04.736Z,3.67
2018-03-31T19:32:32.358Z,4.85
2018-03-31T19:35:01.500Z,5.15
2018-03-31T19:37:29.130Z,4.30
2018-03-31T19:39:56.814Z,4.47
2018-03-31T19:42:24.428Z,4.05
2018-03-31T19:44:52.088Z,4.28
2018-03-31T19:47:19.767Z,3.80
2018-03-31T19:49:47.383Z,4.40
2018-03-31T19:52:14.998Z,5.22
2018-03-31T19:54:42.646Z,4.47
2018-03-31T19:57:11.808Z,5.32
2018-03-31T19:59:39.424Z,4.40
2018-03-31T20:02:07.807Z,5.22
2018-03-31T20:04:36.221Z,4.05
2018-03-31T20:07:03.822Z,4.00
2018-03-31T20:09:32.963Z,4.60
2018-03-31T20:12:01.328Z,5.03
2018-03-31T20:14:29.735Z,5.53
2018-03-31T20:16:57.382Z,5.65
2018-03-31T20:19:24.998Z,6.28
2018-03-31T20:21:54.130Z,5.32
2018-03-31T20:24:21.762Z,5.10
2018-03-31T20:26:50.170Z,4.72
2018-03-31T20:29:17.799Z,5.82
2018-03-31T20:31:45.483Z,5.93
2018-03-31T20:34:13.862Z,5.93
2018-03-31T20:36:42.246Z,7.03
2018-03-31T20:39:09.862Z,6.35
2018-03-31T20:41:37.480Z,6.30
2018-03-31T20:44:05.134Z,6.68
2018-03-31T20:46:32.754Z,8.00
2018-03-31T20:49:00.380Z,6.28
2018-03-31T20:51:28.116Z,5.43
2018-03-31T20:53:56.487Z,6.65
2018-03-31T20:56:24.857Z,6.32
2018-03-31T20:58:53.242Z,6.57
2018-03-31T21:01:21.618Z,8.35
2018-03-31T21:03:50.028Z,6.32
2018-03-31T21:06:17.640Z,8.63
2018-03-31T21:08:46.794Z,8.20
2018-03-31T21:11:14.410Z,6.00
2018-03-31T21:13:42.818Z,6.35
2018-03-31T21:16:10.483Z,6.87
2018-03-31T21:18:38.130Z,7.22
2018-03-31T21:21:06.492Z,6.35
2018-03-31T21:23:34.890Z,5.75
2018-03-31T21:26:02.504Z,7.80
2018-03-31T21:28:30.202Z,7.68
2018-03-31T21:30:58.584Z,10.75
2018-03-31T21:33:26.205Z,9.27
2018-03-31T21:35:53.868Z,7.18
2018-03-31T21:38:21.496Z,8.52
2018-03-31T21:40:49.117Z,9.02
2018-03-31T21:43:17.492Z,7.57
2018-03-31T21:45:45.889Z,8.38
2018-03-31T21:48:13.510Z,7.95
2018-03-31T21:50:41.123Z,7.95
2018-03-31T21:53:08.739Z,10.20
2018-03-31T21:55:37.136Z,9.93
2018-03-31T21:58:05.534Z,10.65
2018-03-31T22:00:33.144Z,12.18
2018-03-31T22:03:00.760Z,11.23
2018-03-31T22:05:28.399Z,12.40
2018-03-31T22:07:56.807Z,12.85
2018-03-31T22:10:24.431Z,12.57
2018-03-31T22:12:52.820Z,12.18
2018-03-31T22:15:26.748Z,10.85
2018-03-31T22:17:54.374Z,12.70
2018-03-31T22:20:22.756Z,13.05
2018-03-31T22:22:51.155Z,12.45
2018-03-31T22:25:18.791Z,13.48
2018-03-31T22:27:47.181Z,15.43
2018-03-31T22:30:15.601Z,14.02
2018-03-31T22:32:43.233Z,13.00
2018-03-31T22:35:10.843Z,14.40
2018-03-31T22:37:38.469Z,14.30
2018-03-31T22:40:06.123Z,14.35
2018-03-31T22:42:33.771Z,17.00
2018-03-31T22:45:02.160Z,15.63
2018-03-31T22:47:29.913Z,14.98
2018-03-31T22:49:57.531Z,15.73
2018-03-31T22:52:25.143Z,16.90
2018-03-31T22:54:52.785Z,15.48
2018-03-31T22:57:21.167Z,17.58
2018-03-31T22:59:49.567Z,14.90
2018-03-31T23:02:17.178Z,15.50
2018-03-31T23:04:44.871Z,16.95
2018-03-31T23:07:13.271Z,17.58
2018-03-31T23:09:40.910Z,15.55
2018-03-31T23:12:09.319Z,16.02
2018-03-31T23:14:36.931Z,16.25
2018-03-31T23:17:04.607Z,16.40
2018-03-31T23:19:33.028Z,14.13
2018-03-31T23:22:00.631Z,15.27
2018-03-31T23:24:28.263Z,18.65
2018-03-31T23:26:55.917Z,16.30
2018-03-31T23:29:23.543Z,14.38
2018-03-31T23:31:51.159Z,16.00
2018-03-31T23:34:18.859Z,14.85
2018-03-31T23:36:47.245Z,13.13
2018-03-31T23:39:15.626Z,15.95
2018-03-31T23:41:43.275Z,13.77
2018-03-31T23:44:11.664Z,13.40
2018-03-31T23:46:39.319Z,13.77
2018-03-31T23:49:06.974Z,14.73
2018-03-31T23:51:35.354Z,15.35
2018-03-31T23:54:03.742Z,14.20
2018-03-31T23:56:31.362Z,13.90
2018-03-31T23:58:58.994Z,12.57
